Time;durP1;ratioP1;P1;durP2;ratioP2;P2;SDS_P1;SDS_P2;PMS_P1;PMS_P2;Temp;Humidity;BMP_temperature;BMP_pressure;BME280_temperature;BME280_humidity;BME280_pressure;Samples;Min_cycle;Max_cycle;Signal;HPM_P1;HPM_P2
2022/01/16 00:00:09;;;;;;;53.63;25.97;;;;;;;-146.48;100.00;45336.06;5303236;28;20089;-66
2022/01/16 00:05:31;;;;;;;48.70;25.97;;;;;;;-146.48;100.00;45292.16;5303445;28;20403;-68
2022/01/16 00:08:02;;;;;;;57.60;26.43;;;;;;;-146.48;100.00;45190.34;5302588;28;20035;-68
2022/01/16 00:10:34;;;;;;;57.10;25.67;;;;;;;-146.48;100.00;45166.41;5302622;28;20032;-68
2022/01/16 00:13:05;;;;;;;50.13;26.13;;;;;;;-146.48;100.00;45116.50;5302708;28;20028;-66
2022/01/16 00:15:36;;;;;;;48.07;26.03;;;;;;;-146.48;100.00;45160.41;5302999;28;20081;-68
2022/01/16 00:18:18;;;;;;;46.87;26.30;;;;;;;-146.48;100.00;45136.47;5301485;28;20459;-69
2022/01/16 00:20:50;;;;;;;47.93;25.27;;;;;;;-146.48;100.00;45124.50;5302693;28;20340;-69
2022/01/16 00:23:24;;;;;;;47.13;24.93;;;;;;;-146.48;100.00;45076.59;5302945;28;20031;-66
2022/01/16 00:25:56;;;;;;;47.53;26.53;;;;;;;-146.48;100.00;45078.56;5301557;28;20089;-68
2022/01/16 00:28:27;;;;;;;57.30;25.13;;;;;;;-146.48;100.00;45090.56;5302756;28;20383;-68
2022/01/16 00:30:59;;;;;;;55.00;26.70;;;;;;;-146.48;100.00;45100.53;5301546;28;20340;-67
2022/01/16 00:33:30;;;;;;;44.43;26.20;;;;;;;-146.48;100.00;45134.47;5302872;28;20024;-69
2022/01/16 00:36:02;;;;;;;45.90;26.33;;;;;;;-146.48;100.00;45096.53;5302148;28;20028;-68
2022/01/16 00:38:34;;;;;;;47.47;24.60;;;;;;;-146.48;100.00;45026.69;5301925;28;20119;-68
2022/01/16 00:41:05;;;;;;;46.57;26.00;;;;;;;-146.48;100.00;45054.63;5302281;28;20035;-68
2022/01/16 00:43:37;;;;;;;45.23;24.97;;;;;;;-146.48;100.00;45036.66;5302672;28;20029;-67
2022/01/16 00:46:09;;;;;;;47.30;26.10;;;;;;;-146.48;100.00;45082.56;5301549;28;20044;-68
2022/01/16 00:48:40;;;;;;;54.10;28.07;;;;;;;-146.48;100.00;45060.63;5300256;28;20043;-68
2022/01/16 00:51:12;;;;;;;52.47;29.67;;;;;;;-146.48;100.00;45092.56;5302612;28;20028;-69
2022/01/16 00:53:43;;;;;;;51.47;27.60;;;;;;;-146.48;100.00;45098.53;5301097;28;20028;-66
2022/01/16 00:56:15;;;;;;;58.73;28.10;;;;;;;-146.48;100.00;45040.66;5302385;28;20039;-67
2022/01/16 00:58:46;;;;;;;50.07;27.70;;;;;;;-146.48;100.00;45116.50;5301741;28;20505;-66
2022/01/16 01:01:18;;;;;;;50.70;27.70;;;;;;;-146.48;100.00;45060.63;5301861;28;20024;-68
2022/01/16 01:03:49;;;;;;;60.43;27.43;;;;;;;-146.48;100.00;45082.56;5301892;28;20110;-67
2022/01/16 01:06:21;;;;;;;51.27;27.73;;;;;;;-146.48;100.00;45060.63;5301641;28;20040;-68
2022/01/16 01:08:52;;;;;;;55.10;27.90;;;;;;;-146.48;100.00;45118.50;5301658;28;20057;-68
2022/01/16 01:11:27;;;;;;;56.17;28.57;;;;;;;-146.48;100.00;45100.53;5302317;28;20021;-66
2022/01/16 01:16:52;;;;;;;57.93;28.03;;;;;;;-146.48;100.00;45078.56;5302563;28;20041;-67
2022/01/16 01:19:29;;;;;;;58.43;28.37;;;;;;;-146.48;100.00;45096.53;5302262;28;20111;-67
2022/01/16 01:22:04;;;;;;;56.67;28.73;;;;;;;-146.48;100.00;44964.81;5301024;28;20111;-68
2022/01/16 01:24:36;;;;;;;62.93;27.73;;;;;;;-146.48;100.00;44976.78;5302112;28;20107;-67
2022/01/16 01:27:17;;;;;;;57.00;27.60;;;;;;;-146.48;100.00;45020.69;5301834;28;20012;-69
2022/01/16 01:29:59;;;;;;;52.17;26.87;;;;;;;-146.48;100.00;45020.69;5304954;28;20108;-67
2022/01/16 01:32:32;;;;;;;67.27;29.20;;;;;;;-146.48;100.00;45000.72;5306647;28;20491;-68
2022/01/16 01:35:05;;;;;;;57.93;27.00;;;;;;;-146.48;100.00;45032.66;5304809;28;20028;-68
2022/01/16 01:37:38;;;;;;;63.57;29.37;;;;;;;-146.48;100.00;45020.69;5305829;28;20089;-67
2022/01/16 01:40:13;;;;;;;58.33;27.53;;;;;;;-146.48;100.00;44970.78;5305970;28;20467;-67
2022/01/16 01:42:50;;;;;;;61.50;28.50;;;;;;;-146.48;100.00;45018.69;5304718;28;20043;-67
2022/01/16 01:51:26;;;;;;;77.50;29.33;;;;;;;-146.48;100.00;45100.53;5306044;28;20387;-67
2022/01/16 01:53:58;;;;;;;88.73;33.37;;;;;;;-146.48;100.00;45116.50;5305437;28;20488;-67
2022/01/16 01:56:29;;;;;;;83.00;28.17;;;;;;;-146.48;100.00;45080.56;5305055;28;20387;-67
2022/01/16 01:59:01;;;;;;;78.40;30.50;;;;;;;-146.48;100.00;45010.72;5304916;28;20036;-67
2022/01/16 02:01:33;;;;;;;78.83;28.00;;;;;;;-146.48;100.00;44884.97;5305705;28;20443;-67
2022/01/16 02:04:05;;;;;;;74.67;28.50;;;;;;;-146.48;100.00;44873.00;5304383;28;20484;-67
2022/01/16 02:06:36;;;;;;;71.40;27.73;;;;;;;-146.48;100.00;44853.03;5305708;28;20146;-68
2022/01/16 02:09:07;;;;;;;77.40;27.33;;;;;;;-146.48;100.00;44914.91;5305181;28;20036;-67
2022/01/16 02:11:39;;;;;;;74.10;28.40;;;;;;;-146.48;100.00;44934.88;5304113;28;20107;-68
2022/01/16 02:14:24;;;;;;;85.93;26.07;;;;;;;-146.48;100.00;44932.88;5305657;28;20020;-67
2022/01/16 02:28:35;;;;;;;80.00;28.43;;;;;;;-146.48;100.00;44871.00;5305229;28;20032;-67
2022/01/16 02:38:59;;;;;;;75.27;28.73;;;;;;;-146.48;100.00;44711.31;5303184;28;20036;-67
2022/01/16 02:41:31;;;;;;;73.85;28.52;;;;;;;-146.48;100.00;44665.41;5304090;28;20016;-67
2022/01/16 02:44:12;;;;;;;70.77;27.47;;;;;;;-146.48;100.00;44629.47;5304383;28;20081;-67
2022/01/16 02:46:44;;;;;;;78.33;28.33;;;;;;;-146.48;100.00;44627.50;5303672;28;20031;-67
2022/01/16 02:49:17;;;;;;;69.70;29.20;;;;;;;-146.48;100.00;44705.31;5304623;28;20046;-67
2022/01/16 02:51:50;;;;;;;89.10;31.20;;;;;;;-146.48;100.00;44691.34;5303652;28;20047;-68
2022/01/16 03:05:00;;;;;;;73.10;29.63;;;;;;;-146.48;100.00;44665.41;5320485;27;20380;-65
2022/01/16 03:07:32;;;;;;;83.43;32.17;;;;;;;-146.48;100.00;44609.53;5320271;28;20028;-67
2022/01/16 03:10:27;;;;;;;87.60;36.20;;;;;;;-146.48;100.00;44605.53;5320032;28;20047;-66
2022/01/16 03:12:59;;;;;;;75.50;33.43;;;;;;;-146.48;100.00;44633.47;5319410;28;20321;-67
2022/01/16 03:15:30;;;;;;;80.87;35.27;;;;;;;-146.48;100.00;44599.56;5320423;28;20031;-66
2022/01/16 03:23:26;;;;;;;78.37;35.53;;;;;;;-146.48;100.00;44583.59;5320783;28;20044;-67
2022/01/16 03:25:57;;;;;;;86.10;38.50;;;;;;;-146.48;100.00;44571.59;5319819;28;20028;-66
2022/01/16 03:28:28;;;;;;;72.83;36.43;;;;;;;-146.48;100.00;44565.63;5319396;28;20024;-66
2022/01/16 03:30:59;;;;;;;80.70;37.03;;;;;;;-146.48;100.00;44491.78;5319565;28;20062;-67
2022/01/16 03:33:31;;;;;;;82.27;38.80;;;;;;;-146.48;100.00;44479.81;5320016;28;20035;-66
2022/01/16 03:36:02;;;;;;;78.53;37.87;;;;;;;-146.48;100.00;44499.75;5318836;28;20089;-66
2022/01/16 03:38:33;;;;;;;83.40;40.17;;;;;;;-146.48;100.00;44541.66;5319939;28;20023;-66
2022/01/16 03:41:05;;;;;;;77.73;38.97;;;;;;;-146.48;100.00;44569.63;5318522;28;20031;-66
2022/01/16 03:43:36;;;;;;;79.37;38.37;;;;;;;-146.48;100.00;44549.66;5319555;28;20023;-67
2022/01/16 03:46:07;;;;;;;83.33;40.63;;;;;;;-146.48;100.00;44563.63;5319328;28;20158;-66
2022/01/16 03:48:39;;;;;;;81.00;38.10;;;;;;;-146.48;100.00;44613.53;5318413;28;20480;-67
2022/01/16 03:51:10;;;;;;;79.37;38.33;;;;;;;-146.48;100.00;44519.72;5319764;28;20419;-67
2022/01/16 03:53:44;;;;;;;80.57;39.10;;;;;;;-146.48;100.00;44525.69;5319012;28;20093;-67
2022/01/16 03:56:15;;;;;;;79.27;38.47;;;;;;;-146.48;100.00;44457.84;5319079;28;20051;-67
2022/01/16 03:58:47;;;;;;;73.63;36.87;;;;;;;-146.48;100.00;44392.00;5319168;28;20028;-67
2022/01/16 04:01:18;;;;;;;80.67;40.23;;;;;;;-146.48;100.00;44399.97;5319523;28;20030;-67
2022/01/16 04:03:54;;;;;;;82.77;39.13;;;;;;;-146.48;100.00;44429.91;5316053;28;20512;-67
2022/01/16 04:06:25;;;;;;;74.23;37.47;;;;;;;-146.48;100.00;44378.03;5305094;28;20494;-67
2022/01/16 04:08:57;;;;;;;76.67;38.63;;;;;;;-146.48;100.00;44411.94;5300581;28;20159;-67
2022/01/16 04:11:30;;;;;;;77.50;40.33;;;;;;;-146.48;100.00;44455.84;5292837;28;20103;-65
2022/01/16 04:16:36;;;;;;;72.57;39.57;;;;;;;-146.48;100.00;44463.84;5303619;28;20036;-65
2022/01/16 04:19:07;;;;;;;74.17;38.23;;;;;;;-146.48;100.00;44465.84;5303458;28;20036;-67
2022/01/16 04:21:39;;;;;;;77.83;39.37;;;;;;;-146.48;100.00;44461.84;5303395;28;20110;-66
2022/01/16 04:24:10;;;;;;;69.30;39.07;;;;;;;-146.48;100.00;44382.00;5302890;28;20460;-67
2022/01/16 04:26:41;;;;;;;72.97;38.77;;;;;;;-146.48;100.00;44439.88;5303259;28;20471;-66
2022/01/16 04:29:12;;;;;;;70.93;39.73;;;;;;;-146.48;100.00;44407.94;5303754;28;20024;-66
2022/01/16 04:31:44;;;;;;;70.03;37.50;;;;;;;-146.48;100.00;44352.06;5302450;28;20072;-66
2022/01/16 04:34:15;;;;;;;73.07;38.10;;;;;;;-146.48;100.00;44358.06;5303570;28;20403;-66
2022/01/16 04:36:46;;;;;;;73.33;38.97;;;;;;;-146.48;100.00;44368.03;5303847;28;20464;-67
2022/01/16 04:39:20;;;;;;;68.30;39.70;;;;;;;-146.48;100.00;44425.91;5303919;28;20025;-66
2022/01/16 04:44:41;;;;;;;67.00;37.63;;;;;;;-146.48;100.00;44405.97;5303301;28;20024;-66
2022/01/16 04:47:12;;;;;;;67.33;37.77;;;;;;;-146.48;100.00;44427.91;5304309;28;20024;-66
2022/01/16 04:49:44;;;;;;;66.23;39.07;;;;;;;-146.48;100.00;44296.19;5303911;28;20446;-66
2022/01/16 04:52:15;;;;;;;69.73;38.67;;;;;;;-146.48;100.00;44316.16;5303425;28;20023;-66
2022/01/16 04:54:46;;;;;;;70.33;38.43;;;;;;;-146.48;100.00;44304.19;5303643;28;20482;-66
2022/01/16 04:57:18;;;;;;;70.00;38.27;;;;;;;-146.48;100.00;44286.22;5304008;28;20390;-66
2022/01/16 04:59:49;;;;;;;70.90;40.80;;;;;;;-146.48;100.00;44252.28;5302847;28;20046;-66
2022/01/16 05:02:20;;;;;;;70.53;40.77;;;;;;;-146.48;100.00;44242.31;5303786;28;20031;-66
2022/01/16 05:04:51;;;;;;;63.50;39.37;;;;;;;-146.48;100.00;44302.19;5303169;28;20047;-66
2022/01/16 05:07:23;;;;;;;68.17;39.17;;;;;;;-146.48;100.00;44274.25;5303477;28;20043;-66
2022/01/16 05:09:54;;;;;;;71.90;41.03;;;;;;;-146.48;100.00;44384.00;5303347;28;20081;-66
2022/01/16 05:12:33;;;;;;;73.37;41.30;;;;;;;-146.48;100.00;44386.00;5303301;28;20032;-66
2022/01/16 05:17:55;;;;;;;69.63;40.57;;;;;;;-146.48;100.00;44368.03;5302674;28;20070;-66
2022/01/16 05:20:27;;;;;;;75.10;41.53;;;;;;;-146.48;100.00;44334.13;5303123;28;20055;-66
2022/01/16 05:22:58;;;;;;;74.40;43.07;;;;;;;-146.48;100.00;44362.06;5303100;28;20016;-67
2022/01/16 05:25:29;;;;;;;69.73;41.43;;;;;;;-146.48;100.00;44310.16;5303560;28;20039;-67
2022/01/16 05:28:01;;;;;;;74.50;43.67;;;;;;;-146.48;100.00;44300.19;5302178;28;20075;-66
2022/01/16 05:30:32;;;;;;;71.17;43.13;;;;;;;-146.48;100.00;44340.09;5303505;28;20068;-67
2022/01/16 05:33:03;;;;;;;72.73;42.90;;;;;;;-146.48;100.00;44202.41;5302920;28;20059;-66
2022/01/16 05:35:35;;;;;;;71.70;43.87;;;;;;;-146.48;100.00;44170.47;5302833;28;20024;-66
2022/01/16 05:38:06;;;;;;;72.50;43.53;;;;;;;-146.48;100.00;44182.44;5302925;28;20101;-67
2022/01/16 05:40:39;;;;;;;75.77;43.47;;;;;;;-146.48;100.00;44206.38;5302157;28;20028;-67
2022/01/16 05:43:11;;;;;;;73.23;44.17;;;;;;;-146.48;100.00;44226.34;5303352;28;20020;-67
2022/01/16 05:45:42;;;;;;;75.93;43.20;;;;;;;-146.48;100.00;44128.56;5302817;28;20060;-66
2022/01/16 05:48:13;;;;;;;77.87;42.80;;;;;;;-146.48;100.00;44116.59;5302286;28;20052;-66
2022/01/16 05:50:44;;;;;;;74.67;46.07;;;;;;;-146.48;100.00;44152.50;5302584;28;20028;-67
2022/01/16 05:53:16;;;;;;;75.53;42.37;;;;;;;-146.48;100.00;44098.63;5302996;28;20044;-66
2022/01/16 05:55:47;;;;;;;80.50;47.20;;;;;;;-146.48;100.00;44192.41;5301629;28;20360;-66
2022/01/16 05:58:18;;;;;;;80.57;45.53;;;;;;;-146.48;100.00;44212.38;5302856;28;20431;-66
2022/01/16 06:00:49;;;;;;;79.03;45.53;;;;;;;-146.48;100.00;44148.53;5302397;28;20024;-65
2022/01/16 06:03:21;;;;;;;77.73;42.07;;;;;;;-146.48;100.00;44144.53;5302118;28;20043;-66
2022/01/16 06:05:52;;;;;;;78.70;45.13;;;;;;;-146.48;100.00;44202.41;5302349;28;20028;-65
2022/01/16 06:08:23;;;;;;;84.00;47.65;;;;;;;-146.48;100.00;44368.03;5302991;28;20383;-66
2022/01/16 06:10:55;;;;;;;79.00;45.93;;;;;;;-146.48;100.00;44370.03;5301527;28;20050;-66
2022/01/16 06:13:26;;;;;;;82.63;47.78;;;;;;;-146.48;100.00;44409.94;5302638;28;20391;-66
2022/01/16 06:15:57;;;;;;;84.00;45.13;;;;;;;-146.48;100.00;44358.06;5301537;28;20413;-66
2022/01/16 06:18:29;;;;;;;80.97;48.08;;;;;;;-146.48;100.00;44370.03;5302672;28;20081;-66
2022/01/16 06:21:00;;;;;;;83.20;46.15;;;;;;;-146.48;100.00;44306.16;5302271;28;20024;-66
2022/01/16 06:23:31;;;;;;;77.97;45.73;;;;;;;-146.48;100.00;44254.28;5301926;28;20076;-66
2022/01/16 06:26:02;;;;;;;85.43;47.53;;;;;;;-146.48;100.00;44240.31;5302035;28;20111;-67
2022/01/16 06:28:34;;;;;;;82.97;46.30;;;;;;;-146.48;100.00;44296.19;5302493;28;20024;-66
2022/01/16 06:31:05;;;;;;;80.10;46.47;;;;;;;-146.48;100.00;44214.38;5301285;28;20024;-66
2022/01/16 06:33:36;;;;;;;76.47;46.70;;;;;;;-146.48;100.00;44210.38;5302304;28;20061;-67
2022/01/16 06:36:08;;;;;;;84.68;46.28;;;;;;;-146.48;100.00;44190.44;5302231;28;20069;-67
2022/01/16 06:38:39;;;;;;;82.43;47.97;;;;;;;-146.48;100.00;44196.41;5301220;28;20065;-66
2022/01/16 06:41:10;;;;;;;83.40;46.42;;;;;;;-146.48;100.00;44258.28;5302718;28;20031;-66
2022/01/16 06:43:42;;;;;;;87.03;48.42;;;;;;;-146.48;100.00;44150.50;5301181;28;20108;-67
2022/01/16 06:46:13;;;;;;;82.90;47.30;;;;;;;-146.48;100.00;44142.53;5302120;28;20012;-66
2022/01/16 06:48:44;;;;;;;77.15;45.30;;;;;;;-146.48;100.00;44082.66;5301679;28;20067;-66
2022/01/16 06:51:19;;;;;;;83.50;46.28;;;;;;;-146.48;100.00;44092.63;5301400;28;20431;-67
2022/01/16 06:53:53;;;;;;;78.78;47.00;;;;;;;-146.48;100.00;44060.72;5301724;28;20031;-67
2022/01/16 06:56:25;;;;;;;74.07;45.17;;;;;;;-146.48;100.00;44160.50;5302310;28;20479;-67
2022/01/16 06:58:58;;;;;;;83.28;45.00;;;;;;;-146.48;100.00;44106.59;5300862;28;20067;-67
2022/01/16 07:01:29;;;;;;;77.43;45.55;;;;;;;-146.48;100.00;44106.59;5302181;28;20058;-67
2022/01/16 07:04:00;;;;;;;85.95;46.47;;;;;;;-146.48;100.00;44110.59;5301635;28;20418;-68
2022/01/16 07:06:31;;;;;;;78.75;44.35;;;;;;;-146.48;100.00;44056.72;5301657;28;20108;-68
2022/01/16 07:09:03;;;;;;;74.30;43.75;;;;;;;-146.48;100.00;44022.78;5301367;28;20036;-68
2022/01/16 07:11:34;;;;;;;76.57;41.97;;;;;;;-146.48;100.00;43996.84;5302101;28;20024;-68
2022/01/16 07:14:05;;;;;;;75.57;41.30;;;;;;;-146.48;100.00;43942.97;5300965;28;20024;-67
2022/01/16 07:16:36;;;;;;;71.00;43.25;;;;;;;-146.48;100.00;43980.88;5301638;28;20040;-68
2022/01/16 07:19:09;;;;;;;69.72;40.88;;;;;;;-146.48;100.00;44022.78;5301078;28;20109;-67
2022/01/16 07:21:41;;;;;;;72.72;42.75;;;;;;;-146.48;100.00;43954.94;5301426;28;20094;-66
2022/01/16 07:24:15;;;;;;;72.13;42.15;;;;;;;-146.48;100.00;43960.94;5302048;28;20051;-67
2022/01/16 07:26:47;;;;;;;70.25;40.80;;;;;;;-146.48;100.00;43942.97;5300876;28;20020;-67
2022/01/16 07:29:18;;;;;;;66.88;39.85;;;;;;;-146.48;100.00;43853.19;5302089;28;20085;-67
2022/01/16 07:31:49;;;;;;;69.00;40.97;;;;;;;-146.48;100.00;43915.03;5301469;28;20027;-67
2022/01/16 07:34:21;;;;;;;70.38;40.95;;;;;;;-146.48;100.00;43827.25;5301030;28;20028;-67
2022/01/16 07:36:52;;;;;;;65.30;38.47;;;;;;;-146.48;100.00;43865.16;5301097;28;20535;-67
2022/01/16 07:39:24;;;;;;;66.78;39.40;;;;;;;-146.48;100.00;43899.06;5302628;28;20452;-67
2022/01/16 07:41:56;;;;;;;65.70;38.80;;;;;;;-146.48;100.00;43911.03;5304623;28;20480;-67
2022/01/16 07:44:27;;;;;;;65.15;39.03;;;;;;;-146.48;100.00;43909.06;5305724;28;20031;-68
2022/01/16 07:46:58;;;;;;;61.72;38.97;;;;;;;-146.48;100.00;43931.00;5304767;28;20027;-67
2022/01/16 07:49:30;;;;;;;70.90;39.03;;;;;;;-146.48;100.00;43913.03;5305649;28;20150;-67
2022/01/16 07:52:01;;;;;;;63.25;38.08;;;;;;;-146.48;100.00;44020.81;5305335;28;20020;-67
2022/01/16 07:54:33;;;;;;;63.88;37.42;;;;;;;-146.48;100.00;43925.00;5305124;28;20032;-66
2022/01/16 07:57:04;;;;;;;58.60;33.35;;;;;;;-146.48;100.00;43829.22;5305330;28;20032;-67
2022/01/16 07:59:36;;;;;;;60.53;36.30;;;;;;;-146.48;100.00;43867.16;5305595;28;20020;-67
2022/01/16 08:02:08;;;;;;;64.38;38.65;;;;;;;-146.48;100.00;43871.13;5304745;28;20111;-67
2022/01/16 08:04:39;;;;;;;62.85;37.83;;;;;;;-146.48;100.00;43793.31;5304816;28;20062;-66
2022/01/16 08:07:11;;;;;;;63.05;36.95;;;;;;;-146.48;100.00;43683.56;5305533;28;20436;-66
2022/01/16 08:09:43;;;;;;;65.90;37.15;;;;;;;-146.48;100.00;43651.66;5304112;28;20471;-67
2022/01/16 08:12:15;;;;;;;63.70;35.83;;;;;;;-146.48;100.00;43647.66;5305365;28;20036;-67
2022/01/16 08:14:46;;;;;;;59.92;34.28;;;;;;;-146.48;100.00;43701.53;5305161;28;20506;-67
2022/01/16 08:17:17;;;;;;;62.15;36.22;;;;;;;-146.48;100.00;43697.53;5304854;28;20032;-67
2022/01/16 08:19:48;;;;;;;63.28;34.25;;;;;;;-146.48;100.00;43625.69;5304816;28;20080;-67
2022/01/16 08:22:20;;;;;;;61.70;35.42;;;;;;;-146.48;100.00;43555.88;5304652;28;20032;-67
2022/01/16 08:24:51;;;;;;;66.13;35.83;;;;;;;-146.48;100.00;43551.88;5304167;28;20028;-67
2022/01/16 08:27:23;;;;;;;64.65;37.83;;;;;;;-146.48;100.00;43567.84;5304797;28;20410;-67
2022/01/16 08:29:54;;;;;;;62.72;35.72;;;;;;;-146.48;100.00;43609.75;5303669;28;20028;-66
2022/01/16 08:32:26;;;;;;;63.70;36.45;;;;;;;-146.48;100.00;43571.84;5304831;28;20075;-66
2022/01/16 08:34:57;;;;;;;64.57;36.33;;;;;;;-146.48;100.00;43613.72;5304134;28;20040;-66
2022/01/16 08:37:28;;;;;;;64.68;37.42;;;;;;;-146.48;100.00;43553.88;5304188;28;20478;-67
2022/01/16 08:40:00;;;;;;;63.40;37.80;;;;;;;-146.48;100.00;43561.84;5304604;28;20035;-66
2022/01/16 08:42:32;;;;;;;62.30;34.53;;;;;;;-146.48;100.00;43547.88;5305002;28;20039;-68
2022/01/16 08:45:04;;;;;;;63.55;34.75;;;;;;;-146.48;100.00;43535.91;5303356;28;20039;-67
2022/01/16 08:47:36;;;;;;;66.78;35.75;;;;;;;-146.48;100.00;43502.00;5304725;28;20106;-66
2022/01/16 08:50:08;;;;;;;66.82;35.97;;;;;;;-146.48;100.00;43438.16;5304498;28;20103;-66
2022/01/16 08:52:40;;;;;;;65.90;36.65;;;;;;;-146.48;100.00;43416.19;5303013;28;20163;-66
2022/01/16 08:55:11;;;;;;;58.55;33.42;;;;;;;-146.48;100.00;43458.09;5304560;28;20379;-67
2022/01/16 08:57:43;;;;;;;64.10;35.55;;;;;;;-146.48;100.00;43428.16;5294611;28;20464;-66
2022/01/16 09:00:15;;;;;;;65.10;35.28;;;;;;;-146.48;100.00;43386.28;5282887;28;20023;-67
2022/01/16 09:02:46;;;;;;;66.18;36.35;;;;;;;-146.48;100.00;43416.19;5282788;28;20151;-67
2022/01/16 09:05:17;;;;;;;65.63;36.88;;;;;;;-146.48;100.00;43547.88;5282938;28;20028;-68
2022/01/16 09:07:48;;;;;;;68.90;36.47;;;;;;;-146.48;100.00;43549.88;5282478;28;20027;-67
2022/01/16 09:10:20;;;;;;;64.22;35.88;;;;;;;-146.48;100.00;43511.97;5281310;28;20029;-67
2022/01/16 09:12:53;;;;;;;66.35;36.13;;;;;;;-146.48;100.00;43543.91;5280905;28;20028;-67
2022/01/16 09:15:24;;;;;;;67.30;37.00;;;;;;;-146.48;100.00;43565.84;5282219;28;20056;-66
2022/01/16 09:17:56;;;;;;;69.60;36.83;;;;;;;-146.48;100.00;43559.84;5281548;28;20059;-67
2022/01/16 09:20:27;;;;;;;68.35;37.40;;;;;;;-146.48;100.00;43527.94;5281151;28;20071;-67
2022/01/16 09:22:59;;;;;;;60.95;31.52;;;;;;;-146.48;100.00;43456.09;5280652;28;20056;-67
2022/01/16 09:25:30;;;;;;;73.57;37.55;;;;;;;-146.48;100.00;43448.13;5281120;28;20041;-67
2022/01/16 09:28:02;;;;;;;73.57;39.25;;;;;;;-146.48;100.00;43416.19;5281286;28;20580;-68
2022/01/16 09:30:36;;;;;;;73.15;39.35;;;;;;;-146.48;100.00;43402.22;5281865;28;20447;-68
2022/01/16 09:33:07;;;;;;;78.82;38.60;;;;;;;-146.48;100.00;43392.25;5280620;28;20036;-68
2022/01/16 09:35:38;;;;;;;77.53;40.40;;;;;;;-146.48;100.00;43300.47;5280583;28;20020;-68
2022/01/16 09:38:10;;;;;;;78.13;38.45;;;;;;;-146.48;100.00;43276.53;5281798;28;20033;-67
2022/01/16 09:40:46;;;;;;;83.03;42.58;;;;;;;-146.48;100.00;43254.59;5280442;28;20028;-67
2022/01/16 09:43:17;;;;;;;82.50;40.03;;;;;;;-146.48;100.00;43182.75;5281731;28;20384;-67
2022/01/16 09:45:51;;;;;;;87.57;41.40;;;;;;;-146.48;100.00;43190.75;5280839;28;20032;-68
2022/01/16 09:48:22;;;;;;;81.93;42.10;;;;;;;-146.48;100.00;43320.44;5289996;28;20028;-67
2022/01/16 09:50:54;;;;;;;92.07;44.08;;;;;;;-146.48;100.00;43368.31;5294188;28;20032;-67
2022/01/16 09:53:26;;;;;;;93.63;44.55;;;;;;;-146.48;100.00;43312.44;5300634;28;20032;-67
2022/01/16 09:55:57;;;;;;;90.53;42.65;;;;;;;-146.48;100.00;43284.53;5297127;28;20036;-67
2022/01/16 09:58:29;;;;;;;101.78;47.38;;;;;;;-146.48;100.00;43218.69;5294176;28;20086;-68
2022/01/16 10:01:00;;;;;;;98.72;44.25;;;;;;;-146.48;100.00;43220.66;5301138;28;20016;-67
2022/01/16 10:03:40;;;;;;;94.57;44.80;;;;;;;-146.48;100.00;43232.66;5302404;28;20499;-67
2022/01/16 10:06:19;;;;;;;101.75;47.45;;;;;;;-146.48;100.00;43256.59;5303149;28;20027;-66
2022/01/16 10:08:54;;;;;;;95.93;45.80;;;;;;;-146.48;100.00;43346.38;5301524;28;20021;-66
2022/01/16 10:11:41;;;;;;;100.55;46.20;;;;;;;-146.48;100.00;43340.38;5302807;28;20489;-66
2022/01/16 10:14:21;;;;;;;95.93;43.40;;;;;;;-146.48;100.00;43310.44;5286809;28;20369;-67
2022/01/16 10:16:53;;;;;;;96.40;44.33;;;;;;;-146.48;100.00;43316.44;5290868;28;20027;-67
2022/01/16 10:19:27;;;;;;;92.10;44.20;;;;;;;-146.48;100.00;43268.56;5300443;28;20588;-67
2022/01/16 10:22:04;;;;;;;96.65;42.05;;;;;;;-146.48;100.00;43166.81;5300430;28;20028;-67
2022/01/16 10:24:36;;;;;;;91.90;43.53;;;;;;;-146.48;100.00;43104.97;5301528;28;20047;-67
2022/01/16 10:27:07;;;;;;;93.53;43.63;;;;;;;-146.48;100.00;43013.19;5301085;28;20034;-67
2022/01/16 10:29:51;;;;;;;91.85;41.15;;;;;;;-146.48;100.00;43083.00;5300296;28;20032;-66
2022/01/16 10:32:25;;;;;;;86.97;37.50;;;;;;;-146.48;100.00;42999.22;5301780;28;20032;-67
2022/01/16 10:35:20;;;;;;;90.65;40.35;;;;;;;-146.48;100.00;42961.31;5300655;28;20035;-66
2022/01/16 10:37:58;;;;;;;89.05;41.17;;;;;;;-146.48;100.00;42935.38;5279692;28;20357;-67
2022/01/16 10:40:36;;;;;;;70.32;33.35;;;;;;;-146.48;100.00;42885.50;5286242;28;20028;-67
2022/01/16 10:43:15;;;;;;;94.50;41.97;;;;;;;-146.48;100.00;42891.50;5291548;28;20032;-67
2022/01/16 10:45:51;;;;;;;93.55;41.33;;;;;;;-146.48;100.00;42927.41;5279997;28;20058;-66
2022/01/16 10:48:26;;;;;;;89.15;40.35;;;;;;;-146.48;100.00;42889.50;5280333;28;20032;-67
2022/01/16 10:50:57;;;;;;;91.95;40.25;;;;;;;-146.48;100.00;42917.44;5279512;28;20020;-67
2022/01/16 10:53:31;;;;;;;84.97;39.78;;;;;;;-146.48;100.00;42845.59;5290362;28;20031;-66
2022/01/16 10:56:04;;;;;;;85.57;40.15;;;;;;;-146.48;100.00;42849.59;5300925;28;20028;-68
2022/01/16 10:58:35;;;;;;;87.80;39.80;;;;;;;-146.48;100.00;42837.63;5300430;28;20035;-67
2022/01/16 11:01:13;;;;;;;85.05;39.58;;;;;;;-146.48;100.00;42779.78;5300829;28;20024;-67
2022/01/16 11:03:50;;;;;;;85.32;39.90;;;;;;;-146.48;100.00;42727.91;5300593;28;20051;-67
2022/01/16 11:06:21;;;;;;;84.70;37.17;;;;;;;-146.48;100.00;42670.06;5299872;28;20020;-67
2022/01/16 11:08:56;;;;;;;88.72;39.85;;;;;;;-146.48;100.00;42630.16;5300684;28;20083;-66
2022/01/16 11:11:27;;;;;;;86.50;38.17;;;;;;;-146.48;100.00;42584.28;5300880;28;20024;-66
2022/01/16 11:14:04;;;;;;;81.80;36.70;;;;;;;-146.48;100.00;42536.41;5297960;28;20059;-66
2022/01/16 11:16:35;;;;;;;76.90;36.20;;;;;;;-146.48;100.00;42506.47;5306165;28;20032;-67
2022/01/16 11:19:09;;;;;;;83.15;37.10;;;;;;;-146.48;100.00;42478.56;5304139;28;20028;-67
2022/01/16 11:21:43;;;;;;;81.18;38.35;;;;;;;-146.48;100.00;42402.75;5304992;28;20130;-67
2022/01/16 11:24:32;;;;;;;78.13;37.40;;;;;;;-146.48;100.00;42404.75;5305400;28;20039;-67
2022/01/16 11:27:04;;;;;;;77.70;37.03;;;;;;;-146.48;100.00;42470.56;5304183;28;20436;-67
2022/01/16 11:29:36;;;;;;;79.38;37.97;;;;;;;-146.48;100.00;42480.56;5305548;28;20028;-67
2022/01/16 11:32:09;;;;;;;75.45;38.10;;;;;;;-146.48;100.00;42442.66;5304093;28;20024;-67
2022/01/16 11:34:41;;;;;;;77.78;36.78;;;;;;;-146.48;100.00;42390.78;5304437;28;20174;-68
2022/01/16 11:37:12;;;;;;;78.35;37.88;;;;;;;-146.48;100.00;42380.81;5305078;28;20020;-67
2022/01/16 11:39:44;;;;;;;73.00;37.40;;;;;;;-146.48;100.00;42257.13;5304606;28;20069;-67
2022/01/16 11:42:22;;;;;;;72.53;35.78;;;;;;;-146.48;100.00;42197.31;5306001;28;20042;-67
2022/01/16 11:44:53;;;;;;;75.43;35.97;;;;;;;-146.48;100.00;42243.19;5305450;28;20028;-68
2022/01/16 11:47:25;;;;;;;79.95;37.35;;;;;;;-146.48;100.00;42231.22;5305485;28;20031;-67
2022/01/16 11:50:10;;;;;;;85.50;36.95;;;;;;;-146.48;100.00;42193.31;5303302;28;20220;-68
2022/01/16 11:52:43;;;;;;;77.50;36.75;;;;;;;-146.48;100.00;42191.31;5305407;28;20498;-67
2022/01/16 11:55:15;;;;;;;77.30;38.42;;;;;;;-146.48;100.00;42195.31;5304923;28;20020;-66
2022/01/16 11:57:56;;;;;;;71.50;35.67;;;;;;;-146.48;100.00;42249.16;5305445;28;20439;-67
2022/01/16 12:00:45;;;;;;;80.50;36.72;;;;;;;-146.48;100.00;42233.22;5305011;28;20032;-67
2022/01/16 12:03:35;;;;;;;77.38;37.28;;;;;;;-146.48;100.00;42165.38;5305533;28;20039;-67
2022/01/16 12:06:30;;;;;;;75.32;37.10;;;;;;;-146.48;100.00;42225.22;5305188;28;20042;-67
2022/01/16 12:09:03;;;;;;;73.47;34.70;;;;;;;-146.48;100.00;42103.56;5302553;28;20027;-67
2022/01/16 12:11:38;;;;;;;73.22;35.08;;;;;;;-146.48;100.00;42105.56;5306056;28;20115;-68
2022/01/16 12:14:09;;;;;;;71.38;33.25;;;;;;;-146.48;100.00;42051.69;5305818;28;20432;-68